sensor_id;sensor_type;location;lat;lon;timestamp;pressure;altitude;pressure_sealevel;temperature;humidity
15405;BME280;7801;48.124;11.590;2023-03-15T00:02:11;94708.50;;;6.23;79.45
15405;BME280;7801;48.124;11.590;2023-03-15T00:04:37;94702.31;;;6.57;78.24
15405;BME280;7801;48.124;11.590;2023-03-15T00:07:02;94708.47;;;6.47;78.28
15405;BME280;7801;48.124;11.590;2023-03-15T00:09:28;94703.28;;;6.42;78.85
15405;BME280;7801;48.124;11.590;2023-03-15T00:11:53;94709.97;;;6.53;78.75
15405;BME280;7801;48.124;11.590;2023-03-15T00:14:19;94702.13;;;6.48;79.16
15405;BME280;7801;48.124;11.590;2023-03-15T00:16:45;94707.69;;;6.46;79.01
15405;BME280;7801;48.124;11.590;2023-03-15T00:19:10;94706.97;;;6.41;79.78
15405;BME280;7801;48.124;11.590;2023-03-15T00:21:35;94703.00;;;6.43;80.32
15405;BME280;7801;48.124;11.590;2023-03-15T00:24:01;94705.69;;;6.38;81.11
15405;BME280;7801;48.124;11.590;2023-03-15T00:26:26;94709.09;;;6.39;81.35
15405;BME280;7801;48.124;11.590;2023-03-15T00:28:52;94712.06;;;6.32;82.30
15405;BME280;7801;48.124;11.590;2023-03-15T00:31:22;94717.50;;;5.93;83.92
15405;BME280;7801;48.124;11.590;2023-03-15T00:33:49;94717.00;;;5.86;85.28
15405;BME280;7801;48.124;11.590;2023-03-15T00:36:18;94711.44;;;5.93;86.05
15405;BME280;7801;48.124;11.590;2023-03-15T00:38:43;94724.47;;;5.79;87.15
15405;BME280;7801;48.124;11.590;2023-03-15T00:41:12;94718.50;;;5.68;87.53
15405;BME280;7801;48.124;11.590;2023-03-15T00:43:37;94714.22;;;5.43;88.46
15405;BME280;7801;48.124;11.590;2023-03-15T00:46:04;94718.97;;;5.41;89.12
15405;BME280;7801;48.124;11.590;2023-03-15T00:48:29;94716.31;;;5.46;89.42
15405;BME280;7801;48.124;11.590;2023-03-15T00:51:22;94715.22;;;5.18;90.33
15405;BME280;7801;48.124;11.590;2023-03-15T00:53:49;94708.75;;;5.01;91.14
15405;BME280;7801;48.124;11.590;2023-03-15T00:56:23;94711.09;;;5.07;91.44
15405;BME280;7801;48.124;11.590;2023-03-15T00:58:49;94730.34;;;4.98;92.33
15405;BME280;7801;48.124;11.590;2023-03-15T01:01:23;94750.25;;;5.09;92.08
15405;BME280;7801;48.124;11.590;2023-03-15T01:03:49;94778.66;;;5.02;91.57
15405;BME280;7801;48.124;11.590;2023-03-15T01:06:23;94790.66;;;4.64;91.58
15405;BME280;7801;48.124;11.590;2023-03-15T01:08:49;94803.34;;;4.46;90.25
15405;BME280;7801;48.124;11.590;2023-03-15T01:11:23;94789.53;;;4.05;90.92
15405;BME280;7801;48.124;11.590;2023-03-15T01:13:54;94791.66;;;3.83;92.06
15405;BME280;7801;48.124;11.590;2023-03-15T01:16:20;94785.09;;;3.70;92.29
15405;BME280;7801;48.124;11.590;2023-03-15T01:18:46;94783.53;;;3.69;92.43
15405;BME280;7801;48.124;11.590;2023-03-15T01:21:13;94781.69;;;3.65;92.88
15405;BME280;7801;48.124;11.590;2023-03-15T01:23:39;94773.31;;;3.42;93.88
15405;BME280;7801;48.124;11.590;2023-03-15T01:26:06;94760.69;;;3.34;94.28
15405;BME280;7801;48.124;11.590;2023-03-15T01:28:32;94756.00;;;3.47;94.61
15405;BME280;7801;48.124;11.590;2023-03-15T01:30:57;94755.22;;;3.41;95.31
15405;BME280;7801;48.124;11.590;2023-03-15T01:33:23;94753.38;;;3.52;94.75
15405;BME280;7801;48.124;11.590;2023-03-15T01:35:57;94763.34;;;3.65;94.39
15405;BME280;7801;48.124;11.590;2023-03-15T01:38:23;94744.72;;;3.71;93.79
15405;BME280;7801;48.124;11.590;2023-03-15T01:40:48;94733.97;;;3.48;94.82
15405;BME280;7801;48.124;11.590;2023-03-15T01:43:19;94722.97;;;3.35;95.91
15405;BME280;7801;48.124;11.590;2023-03-15T01:46:05;94730.56;;;3.62;95.71
15405;BME280;7801;48.124;11.590;2023-03-15T01:51:23;94750.75;;;3.47;95.94
15405;BME280;7801;48.124;11.590;2023-03-15T01:54:01;94753.38;;;3.72;95.40
15405;BME280;7801;48.124;11.590;2023-03-15T01:56:27;94752.84;;;3.70;95.29
15405;BME280;7801;48.124;11.590;2023-03-15T01:58:55;94754.69;;;3.64;95.48
15405;BME280;7801;48.124;11.590;2023-03-15T02:01:23;94752.06;;;3.69;95.08
15405;BME280;7801;48.124;11.590;2023-03-15T02:03:54;94765.94;;;3.75;94.78
15405;BME280;7801;48.124;11.590;2023-03-15T02:06:21;94773.28;;;3.58;95.25
15405;BME280;7801;48.124;11.590;2023-03-15T02:08:58;94793.22;;;3.79;94.40
15405;BME280;7801;48.124;11.590;2023-03-15T02:11:26;94781.69;;;3.75;95.01
15405;BME280;7801;48.124;11.590;2023-03-15T02:13:53;94776.97;;;3.87;94.74
15405;BME280;7801;48.124;11.590;2023-03-15T02:16:20;94781.97;;;3.63;95.04
15405;BME280;7801;48.124;11.590;2023-03-15T02:18:46;94782.72;;;3.54;95.93
15405;BME280;7801;48.124;11.590;2023-03-15T02:24:08;94776.44;;;3.80;95.14
15405;BME280;7801;48.124;11.590;2023-03-15T02:26:46;94792.16;;;3.80;95.18
15405;BME280;7801;48.124;11.590;2023-03-15T02:29:12;94793.22;;;3.84;94.74
15405;BME280;7801;48.124;11.590;2023-03-15T02:31:38;94799.53;;;3.73;95.00
15405;BME280;7801;48.124;11.590;2023-03-15T02:34:05;94806.34;;;3.84;94.80
15405;BME280;7801;48.124;11.590;2023-03-15T02:36:31;94808.44;;;3.82;95.00
15405;BME280;7801;48.124;11.590;2023-03-15T02:38:57;94807.91;;;3.90;95.11
15405;BME280;7801;48.124;11.590;2023-03-15T02:41:48;94814.72;;;3.81;95.48
15405;BME280;7801;48.124;11.590;2023-03-15T02:44:31;94825.50;;;3.69;96.07
15405;BME280;7801;48.124;11.590;2023-03-15T02:47:04;94817.87;;;3.58;95.43
15405;BME280;7801;48.124;11.590;2023-03-15T02:49:33;94826.00;;;3.76;95.26
15405;BME280;7801;48.124;11.590;2023-03-15T02:52:00;94833.34;;;3.74;95.36
15405;BME280;7801;48.124;11.590;2023-03-15T02:54:25;94835.97;;;3.74;95.80
15405;BME280;7801;48.124;11.590;2023-03-15T02:56:50;94843.06;;;3.74;96.11
15405;BME280;7801;48.124;11.590;2023-03-15T02:59:16;94858.25;;;3.57;95.88
15405;BME280;7801;48.124;11.590;2023-03-15T03:01:41;94853.81;;;3.77;96.35
15405;BME280;7801;48.124;11.590;2023-03-15T03:04:09;94887.91;;;3.83;94.85
15405;BME280;7801;48.124;11.590;2023-03-15T03:06:35;94900.78;;;3.89;93.51
15405;BME280;7801;48.124;11.590;2023-03-15T03:09:00;94911.75;;;3.61;93.29
15405;BME280;7801;48.124;11.590;2023-03-15T03:11:29;94917.00;;;3.51;93.82
15405;BME280;7801;48.124;11.590;2023-03-15T03:13:54;94931.94;;;3.50;93.50
15405;BME280;7801;48.124;11.590;2023-03-15T03:16:19;94948.97;;;3.48;94.54
15405;BME280;7801;48.124;11.590;2023-03-15T03:18:47;94950.25;;;3.45;94.38
15405;BME280;7801;48.124;11.590;2023-03-15T03:21:12;94962.53;;;3.34;94.87
15405;BME280;7801;48.124;11.590;2023-03-15T03:23:39;94975.03;;;3.17;93.98
15405;BME280;7801;48.124;11.590;2023-03-15T03:26:12;94988.38;;;3.05;93.57
15405;BME280;7801;48.124;11.590;2023-03-15T03:28:41;94987.22;;;2.91;94.74
15405;BME280;7801;48.124;11.590;2023-03-15T03:31:17;95004.50;;;2.92;94.78
15405;BME280;7801;48.124;11.590;2023-03-15T03:33:43;95008.37;;;2.80;96.07
15405;BME280;7801;48.124;11.590;2023-03-15T03:36:08;95013.66;;;2.85;96.46
15405;BME280;7801;48.124;11.590;2023-03-15T03:38:34;95019.72;;;2.95;95.66
15405;BME280;7801;48.124;11.590;2023-03-15T03:40:59;95039.41;;;2.98;95.68
15405;BME280;7801;48.124;11.590;2023-03-15T03:43:24;95042.50;;;2.95;95.08
15405;BME280;7801;48.124;11.590;2023-03-15T03:45:49;95074.94;;;2.84;95.53
15405;BME280;7801;48.124;11.590;2023-03-15T03:48:15;95058.34;;;2.73;95.23
15405;BME280;7801;48.124;11.590;2023-03-15T03:50:40;95064.38;;;2.73;95.60
15405;BME280;7801;48.124;11.590;2023-03-15T03:53:05;95061.25;;;2.76;94.61
15405;BME280;7801;48.124;11.590;2023-03-15T03:55:31;95069.44;;;2.53;95.72
15405;BME280;7801;48.124;11.590;2023-03-15T03:57:58;95084.03;;;2.76;95.24
15405;BME280;7801;48.124;11.590;2023-03-15T04:00:23;95090.59;;;2.79;95.56
15405;BME280;7801;48.124;11.590;2023-03-15T04:02:48;95098.41;;;2.73;94.91
15405;BME280;7801;48.124;11.590;2023-03-15T04:05:18;95106.31;;;2.79;94.38
15405;BME280;7801;48.124;11.590;2023-03-15T04:07:43;95110.19;;;3.03;93.86
15405;BME280;7801;48.124;11.590;2023-03-15T04:10:09;95127.97;;;3.01;92.55
15405;BME280;7801;48.124;11.590;2023-03-15T04:12:40;95127.38;;;2.89;92.03
15405;BME280;7801;48.124;11.590;2023-03-15T04:15:05;95125.78;;;2.88;93.52
15405;BME280;7801;48.124;11.590;2023-03-15T04:17:32;95136.69;;;2.80;92.66
15405;BME280;7801;48.124;11.590;2023-03-15T04:19:58;95142.91;;;2.73;94.32
15405;BME280;7801;48.124;11.590;2023-03-15T04:22:26;95147.28;;;2.90;94.48
15405;BME280;7801;48.124;11.590;2023-03-15T04:24:51;95155.09;;;2.85;94.78
15405;BME280;7801;48.124;11.590;2023-03-15T04:27:16;95158.94;;;2.77;94.28
15405;BME280;7801;48.124;11.590;2023-03-15T04:29:42;95167.34;;;2.79;94.27
15405;BME280;7801;48.124;11.590;2023-03-15T04:32:08;95173.63;;;2.78;94.20
15405;BME280;7801;48.124;11.590;2023-03-15T04:34:34;95173.47;;;2.90;93.66
15405;BME280;7801;48.124;11.590;2023-03-15T04:37:03;95187.84;;;2.87;93.24
15405;BME280;7801;48.124;11.590;2023-03-15T04:39:29;95194.81;;;3.03;93.09
15405;BME280;7801;48.124;11.590;2023-03-15T04:41:54;95192.94;;;2.99;92.20
15405;BME280;7801;48.124;11.590;2023-03-15T04:44:19;95204.53;;;3.08;92.49
15405;BME280;7801;48.124;11.590;2023-03-15T04:46:45;95210.53;;;3.03;91.59
15405;BME280;7801;48.124;11.590;2023-03-15T04:49:10;95218.25;;;3.20;91.05
15405;BME280;7801;48.124;11.590;2023-03-15T04:51:36;95213.75;;;3.16;90.32
15405;BME280;7801;48.124;11.590;2023-03-15T04:54:02;95217.19;;;3.16;90.99
15405;BME280;7801;48.124;11.590;2023-03-15T04:56:28;95220.75;;;3.05;91.76
15405;BME280;7801;48.124;11.590;2023-03-15T04:58:54;95232.28;;;3.04;90.96
15405;BME280;7801;48.124;11.590;2023-03-15T05:01:24;95229.19;;;3.12;90.53
15405;BME280;7801;48.124;11.590;2023-03-15T05:03:52;95238.56;;;3.03;91.43
15405;BME280;7801;48.124;11.590;2023-03-15T05:06:18;95247.50;;;3.07;91.73
15405;BME280;7801;48.124;11.590;2023-03-15T05:08:43;95247.78;;;2.84;91.46
15405;BME280;7801;48.124;11.590;2023-03-15T05:11:09;95258.28;;;2.84;91.41
15405;BME280;7801;48.124;11.590;2023-03-15T05:13:34;95271.31;;;2.79;92.02
15405;BME280;7801;48.124;11.590;2023-03-15T05:16:00;95278.69;;;2.60;92.58
15405;BME280;7801;48.124;11.590;2023-03-15T05:18:25;95285.03;;;2.64;92.70
15405;BME280;7801;48.124;11.590;2023-03-15T05:20:50;95281.94;;;2.67;92.96
15405;BME280;7801;48.124;11.590;2023-03-15T05:23:16;95290.59;;;2.51;94.21
15405;BME280;7801;48.124;11.590;2023-03-15T05:25:41;95295.69;;;2.57;94.21
15405;BME280;7801;48.124;11.590;2023-03-15T05:28:07;95297.75;;;2.55;93.41
15405;BME280;7801;48.124;11.590;2023-03-15T05:30:32;95300.91;;;2.57;93.48
15405;BME280;7801;48.124;11.590;2023-03-15T05:32:57;95301.03;;;2.67;93.18
15405;BME280;7801;48.124;11.590;2023-03-15T05:35:23;95314.44;;;2.49;94.28
15405;BME280;7801;48.124;11.590;2023-03-15T05:37:51;95314.25;;;2.56;93.93
15405;BME280;7801;48.124;11.590;2023-03-15T05:40:17;95323.28;;;2.65;94.03
15405;BME280;7801;48.124;11.590;2023-03-15T05:42:42;95324.31;;;2.64;93.30
15405;BME280;7801;48.124;11.590;2023-03-15T05:45:08;95332.62;;;2.61;93.15
15405;BME280;7801;48.124;11.590;2023-03-15T05:47:35;95333.59;;;2.55;94.01
15405;BME280;7801;48.124;11.590;2023-03-15T05:50:00;95327.88;;;2.58;93.59
15405;BME280;7801;48.124;11.590;2023-03-15T05:52:26;95331.44;;;2.68;92.68
15405;BME280;7801;48.124;11.590;2023-03-15T05:54:51;95342.81;;;2.57;93.51
15405;BME280;7801;48.124;11.590;2023-03-15T05:57:16;95341.78;;;2.58;93.62
15405;BME280;7801;48.124;11.590;2023-03-15T05:59:42;95353.53;;;2.78;93.97
15405;BME280;7801;48.124;11.590;2023-03-15T06:02:07;95360.84;;;2.75;92.33
15405;BME280;7801;48.124;11.590;2023-03-15T06:04:33;95361.38;;;2.78;90.80
15405;BME280;7801;48.124;11.590;2023-03-15T06:06:58;95373.25;;;2.63;92.21
15405;BME280;7801;48.124;11.590;2023-03-15T06:09:23;95376.84;;;2.57;92.65
15405;BME280;7801;48.124;11.590;2023-03-15T06:11:48;95378.19;;;2.60;92.84
15405;BME280;7801;48.124;11.590;2023-03-15T06:14:15;95375.00;;;2.58;92.87
15405;BME280;7801;48.124;11.590;2023-03-15T06:16:40;95376.25;;;2.72;92.10
15405;BME280;7801;48.124;11.590;2023-03-15T06:19:05;95384.97;;;2.78;91.60
15405;BME280;7801;48.124;11.590;2023-03-15T06:21:31;95396.22;;;2.78;90.82
15405;BME280;7801;48.124;11.590;2023-03-15T06:23:56;95408.59;;;2.83;90.75
15405;BME280;7801;48.124;11.590;2023-03-15T06:26:21;95415.28;;;2.73;91.08
15405;BME280;7801;48.124;11.590;2023-03-15T06:28:47;95405.34;;;2.75;90.96
15405;BME280;7801;48.124;11.590;2023-03-15T06:31:14;95409.09;;;2.80;91.03
15405;BME280;7801;48.124;11.590;2023-03-15T06:33:39;95413.22;;;2.75;90.57
15405;BME280;7801;48.124;11.590;2023-03-15T06:36:06;95412.44;;;2.75;90.68
15405;BME280;7801;48.124;11.590;2023-03-15T06:38:31;95416.03;;;2.69;90.84
15405;BME280;7801;48.124;11.590;2023-03-15T06:40:58;95412.00;;;2.45;92.10
15405;BME280;7801;48.124;11.590;2023-03-15T06:43:26;95419.44;;;2.69;91.67
15405;BME280;7801;48.124;11.590;2023-03-15T06:45:51;95414.16;;;2.86;90.63
15405;BME280;7801;48.124;11.590;2023-03-15T06:48:17;95423.09;;;2.68;90.93
15405;BME280;7801;48.124;11.590;2023-03-15T06:50:43;95426.06;;;2.77;90.93
15405;BME280;7801;48.124;11.590;2023-03-15T06:53:08;95422.84;;;2.92;90.23
15405;BME280;7801;48.124;11.590;2023-03-15T06:55:33;95418.94;;;2.72;90.88
15405;BME280;7801;48.124;11.590;2023-03-15T06:57:59;95432.25;;;2.88;90.18
15405;BME280;7801;48.124;11.590;2023-03-15T07:00:24;95433.00;;;3.05;89.82
15405;BME280;7801;48.124;11.590;2023-03-15T07:02:50;95434.19;;;2.97;89.81
15405;BME280;7801;48.124;11.590;2023-03-15T07:05:15;95437.44;;;3.04;89.97
15405;BME280;7801;48.124;11.590;2023-03-15T07:07:40;95444.19;;;3.00;89.84
15405;BME280;7801;48.124;11.590;2023-03-15T07:10:06;95435.84;;;3.03;89.19
15405;BME280;7801;48.124;11.590;2023-03-15T07:12:32;95438.56;;;2.92;89.40
15405;BME280;7801;48.124;11.590;2023-03-15T07:14:57;95438.28;;;2.88;90.21
15405;BME280;7801;48.124;11.590;2023-03-15T07:17:22;95453.47;;;3.08;89.15
15405;BME280;7801;48.124;11.590;2023-03-15T07:19:48;95445.06;;;3.06;89.32
15405;BME280;7801;48.124;11.590;2023-03-15T07:22:13;95445.72;;;3.18;88.03
15405;BME280;7801;48.124;11.590;2023-03-15T07:24:38;95436.09;;;7.15;100.00
15405;BME280;7801;48.124;11.590;2023-03-15T07:27:04;95425.75;;;9.61;100.00
15405;BME280;7801;48.124;11.590;2023-03-15T07:29:31;95443.34;;;10.84;92.45
15405;BME280;7801;48.124;11.590;2023-03-15T07:31:56;95437.41;;;11.47;76.69
15405;BME280;7801;48.124;11.590;2023-03-15T07:34:21;95446.38;;;11.37;65.14
15405;BME280;7801;48.124;11.590;2023-03-15T07:36:47;95455.44;;;11.63;64.48
15405;BME280;7801;48.124;11.590;2023-03-15T07:39:12;95462.97;;;11.70;62.55
15405;BME280;7801;48.124;11.590;2023-03-15T07:41:38;95457.63;;;12.11;60.02
15405;BME280;7801;48.124;11.590;2023-03-15T07:44:03;95456.59;;;11.85;57.75
15405;BME280;7801;48.124;11.590;2023-03-15T07:46:29;95469.78;;;11.35;59.95
15405;BME280;7801;48.124;11.590;2023-03-15T07:48:55;95467.81;;;11.54;57.08
15405;BME280;7801;48.124;11.590;2023-03-15T07:51:20;95466.28;;;11.81;57.13
15405;BME280;7801;48.124;11.590;2023-03-15T07:53:45;95456.28;;;12.00;56.34
15405;BME280;7801;48.124;11.590;2023-03-15T07:56:11;95470.94;;;10.13;55.67
15405;BME280;7801;48.124;11.590;2023-03-15T07:58:36;95471.47;;;8.67;59.64
15405;BME280;7801;48.124;11.590;2023-03-15T08:01:01;95474.53;;;7.31;63.13
15405;BME280;7801;48.124;11.590;2023-03-15T08:03:27;95484.66;;;6.28;68.76
15405;BME280;7801;48.124;11.590;2023-03-15T08:05:52;95478.41;;;5.66;70.87
15405;BME280;7801;48.124;11.590;2023-03-15T08:08:18;95480.97;;;4.94;74.24
15405;BME280;7801;48.124;11.590;2023-03-15T08:10:44;95474.34;;;4.86;76.41
15405;BME280;7801;48.124;11.590;2023-03-15T08:13:09;95476.25;;;4.96;76.00
15405;BME280;7801;48.124;11.590;2023-03-15T08:15:35;95471.88;;;4.69;78.26
15405;BME280;7801;48.124;11.590;2023-03-15T08:18:01;95476.94;;;4.81;78.34
15405;BME280;7801;48.124;11.590;2023-03-15T08:20:27;95468.91;;;5.03;75.99
15405;BME280;7801;48.124;11.590;2023-03-15T08:22:53;95481.94;;;4.77;76.54
15405;BME280;7801;48.124;11.590;2023-03-15T08:25:21;95474.09;;;4.88;75.93
15405;BME280;7801;48.124;11.590;2023-03-15T08:27:48;95465.06;;;4.73;76.01
15405;BME280;7801;48.124;11.590;2023-03-15T08:30:15;95472.34;;;4.98;76.16
15405;BME280;7801;48.124;11.590;2023-03-15T08:32:42;95469.69;;;4.56;76.78
15405;BME280;7801;48.124;11.590;2023-03-15T08:35:09;95475.19;;;4.55;76.18
15405;BME280;7801;48.124;11.590;2023-03-15T08:37:37;95479.66;;;4.54;76.12
15405;BME280;7801;48.124;11.590;2023-03-15T08:40:02;95480.87;;;4.46;76.11
15405;BME280;7801;48.124;11.590;2023-03-15T08:42:34;95478.44;;;4.35;78.62
15405;BME280;7801;48.124;11.590;2023-03-15T08:45:01;95465.37;;;4.45;78.22
15405;BME280;7801;48.124;11.590;2023-03-15T08:47:27;95467.66;;;4.68;77.78
15405;BME280;7801;48.124;11.590;2023-03-15T08:49:52;95468.38;;;5.01;75.65
15405;BME280;7801;48.124;11.590;2023-03-15T08:52:18;95468.63;;;4.99;75.67
15405;BME280;7801;48.124;11.590;2023-03-15T08:54:44;95459.16;;;4.93;72.01
15405;BME280;7801;48.124;11.590;2023-03-15T08:57:09;95471.78;;;4.54;73.54
15405;BME280;7801;48.124;11.590;2023-03-15T08:59:37;95472.97;;;4.78;73.13
15405;BME280;7801;48.124;11.590;2023-03-15T09:02:02;95471.50;;;4.93;72.77
15405;BME280;7801;48.124;11.590;2023-03-15T09:04:28;95467.75;;;4.83;72.60
15405;BME280;7801;48.124;11.590;2023-03-15T09:06:53;95468.00;;;4.82;69.50
15405;BME280;7801;48.124;11.590;2023-03-15T09:09:19;95469.78;;;4.71;69.69
15405;BME280;7801;48.124;11.590;2023-03-15T09:11:44;95472.31;;;4.56;68.22
15405;BME280;7801;48.124;11.590;2023-03-15T09:14:09;95475.59;;;4.73;67.21
15405;BME280;7801;48.124;11.590;2023-03-15T09:16:35;95476.09;;;4.70;66.79
15405;BME280;7801;48.124;11.590;2023-03-15T09:19:00;95479.31;;;4.82;66.51
15405;BME280;7801;48.124;11.590;2023-03-15T09:21:25;95469.91;;;4.92;66.81
15405;BME280;7801;48.124;11.590;2023-03-15T09:23:52;95469.31;;;4.79;67.34
15405;BME280;7801;48.124;11.590;2023-03-15T09:26:17;95470.34;;;4.73;68.50
15405;BME280;7801;48.124;11.590;2023-03-15T09:28:42;95471.44;;;4.82;68.84
15405;BME280;7801;48.124;11.590;2023-03-15T09:31:08;95468.38;;;4.96;68.06
15405;BME280;7801;48.124;11.590;2023-03-15T09:33:35;95472.81;;;4.90;68.90
15405;BME280;7801;48.124;11.590;2023-03-15T09:36:00;95481.59;;;5.11;68.80
15405;BME280;7801;48.124;11.590;2023-03-15T09:38:26;95475.22;;;4.97;66.62
15405;BME280;7801;48.124;11.590;2023-03-15T09:40:58;95473.13;;;4.99;66.53
15405;BME280;7801;48.124;11.590;2023-03-15T09:54:02;95465.97;;;5.46;66.53
15405;BME280;7801;48.124;11.590;2023-03-15T09:56:49;95477.03;;;5.48;67.67
15405;BME280;7801;48.124;11.590;2023-03-15T09:59:17;95471.84;;;5.64;64.34
15405;BME280;7801;48.124;11.590;2023-03-15T10:01:47;95476.59;;;5.72;69.43
15405;BME280;7801;48.124;11.590;2023-03-15T10:04:28;95481.13;;;5.81;66.21
15405;BME280;7801;48.124;11.590;2023-03-15T10:06:56;95479.63;;;6.01;63.78
15405;BME280;7801;48.124;11.590;2023-03-15T10:09:23;95475.66;;;6.08;64.20
15405;BME280;7801;48.124;11.590;2023-03-15T10:12:03;95486.47;;;6.12;64.55
15405;BME280;7801;48.124;11.590;2023-03-15T10:14:49;95480.97;;;6.29;63.63
15405;BME280;7801;48.124;11.590;2023-03-15T10:17:47;95488.31;;;6.11;61.83
15405;BME280;7801;48.124;11.590;2023-03-15T10:20:22;95496.25;;;6.16;62.47
15405;BME280;7801;48.124;11.590;2023-03-15T10:23:04;95491.00;;;6.47;61.81
15405;BME280;7801;48.124;11.590;2023-03-15T10:25:32;95501.00;;;6.45;60.05
15405;BME280;7801;48.124;11.590;2023-03-15T10:28:01;95490.41;;;6.09;60.64
15405;BME280;7801;48.124;11.590;2023-03-15T10:30:31;95495.19;;;6.28;60.20
15405;BME280;7801;48.124;11.590;2023-03-15T10:35:25;95494.94;;;6.34;56.82
15405;BME280;7801;48.124;11.590;2023-03-15T10:37:50;95480.19;;;6.48;56.53
15405;BME280;7801;48.124;11.590;2023-03-15T10:43:19;95488.22;;;5.86;58.16
15405;BME280;7801;48.124;11.590;2023-03-15T10:48:39;95501.09;;;5.77;57.45
15405;BME280;7801;48.124;11.590;2023-03-15T10:51:33;95490.84;;;5.76;56.96
15405;BME280;7801;48.124;11.590;2023-03-15T10:54:12;95487.69;;;5.84;58.23
15405;BME280;7801;48.124;11.590;2023-03-15T10:56:47;95486.06;;;5.68;58.20
15405;BME280;7801;48.124;11.590;2023-03-15T10:59:16;95481.81;;;5.57;59.29
15405;BME280;7801;48.124;11.590;2023-03-15T11:01:45;95485.56;;;5.76;58.37
15405;BME280;7801;48.124;11.590;2023-03-15T11:06:50;95484.34;;;5.94;54.99
15405;BME280;7801;48.124;11.590;2023-03-15T11:09:24;95476.63;;;5.82;56.51
15405;BME280;7801;48.124;11.590;2023-03-15T11:12:02;95480.69;;;6.10;56.02
15405;BME280;7801;48.124;11.590;2023-03-15T11:14:43;95480.94;;;6.24;54.29
15405;BME280;7801;48.124;11.590;2023-03-15T11:17:21;95477.28;;;6.19;54.55
15405;BME280;7801;48.124;11.590;2023-03-15T11:19:59;95469.38;;;6.35;53.28
15405;BME280;7801;48.124;11.590;2023-03-15T11:22:33;95470.97;;;6.46;51.50
15405;BME280;7801;48.124;11.590;2023-03-15T11:24:59;95469.91;;;6.37;50.79
15405;BME280;7801;48.124;11.590;2023-03-15T11:27:25;95468.31;;;6.31;50.88
15405;BME280;7801;48.124;11.590;2023-03-15T11:29:55;95471.50;;;6.53;53.16
15405;BME280;7801;48.124;11.590;2023-03-15T11:32:27;95469.94;;;6.42;51.22
15405;BME280;7801;48.124;11.590;2023-03-15T11:34:55;95463.59;;;6.73;52.02
15405;BME280;7801;48.124;11.590;2023-03-15T11:40:10;95455.16;;;6.66;49.85
15405;BME280;7801;48.124;11.590;2023-03-15T11:42:48;95457.78;;;6.81;48.93
15405;BME280;7801;48.124;11.590;2023-03-15T11:45:43;95453.81;;;6.94;48.71
15405;BME280;7801;48.124;11.590;2023-03-15T11:48:20;95456.16;;;7.06;50.04
15405;BME280;7801;48.124;11.590;2023-03-15T11:50:54;95448.00;;;6.87;49.71
15405;BME280;7801;48.124;11.590;2023-03-15T11:53:20;95450.63;;;7.02;49.10
15405;BME280;7801;48.124;11.590;2023-03-15T11:55:49;95445.34;;;7.02;50.02
15405;BME280;7801;48.124;11.590;2023-03-15T11:58:33;95445.63;;;7.01;48.16
15405;BME280;7801;48.124;11.590;2023-03-15T12:01:01;95450.09;;;7.00;47.81
15405;BME280;7801;48.124;11.590;2023-03-15T12:03:32;95442.94;;;7.16;47.23
15405;BME280;7801;48.124;11.590;2023-03-15T12:08:51;95435.56;;;7.08;45.87
15405;BME280;7801;48.124;11.590;2023-03-15T12:16:28;95430.22;;;7.33;46.02
15405;BME280;7801;48.124;11.590;2023-03-15T12:19:02;95425.09;;;7.62;46.73
15405;BME280;7801;48.124;11.590;2023-03-15T12:21:39;95431.19;;;7.52;45.39
15405;BME280;7801;48.124;11.590;2023-03-15T12:24:15;95416.31;;;7.72;46.18
15405;BME280;7801;48.124;11.590;2023-03-15T12:26:48;95418.25;;;7.56;46.67
15405;BME280;7801;48.124;11.590;2023-03-15T12:29:24;95418.53;;;7.49;47.77
15405;BME280;7801;48.124;11.590;2023-03-15T12:31:54;95412.81;;;7.32;46.60
15405;BME280;7801;48.124;11.590;2023-03-15T12:37:26;95409.81;;;7.49;49.69
15405;BME280;7801;48.124;11.590;2023-03-15T12:59:04;95404.34;;;7.35;46.46
15405;BME280;7801;48.124;11.590;2023-03-15T13:01:31;95410.97;;;7.28;47.35
15405;BME280;7801;48.124;11.590;2023-03-15T13:03:58;95413.41;;;7.14;46.00
15405;BME280;7801;48.124;11.590;2023-03-15T13:09:10;95408.62;;;7.26;47.13
15405;BME280;7801;48.124;11.590;2023-03-15T13:11:47;95407.00;;;7.30;46.53
15405;BME280;7801;48.124;11.590;2023-03-15T13:17:27;95412.78;;;7.42;47.20
15405;BME280;7801;48.124;11.590;2023-03-15T13:28:24;95410.16;;;7.37;46.13
15405;BME280;7801;48.124;11.590;2023-03-15T13:30:54;95405.09;;;7.46;46.14
15405;BME280;7801;48.124;11.590;2023-03-15T13:33:25;95404.69;;;7.73;46.13
15405;BME280;7801;48.124;11.590;2023-03-15T13:38:42;95411.94;;;7.52;49.25
15405;BME280;7801;48.124;11.590;2023-03-15T13:43:48;95419.31;;;8.04;47.11
15405;BME280;7801;48.124;11.590;2023-03-15T13:46:16;95403.50;;;7.94;46.17
15405;BME280;7801;48.124;11.590;2023-03-15T13:48:43;95401.09;;;8.03;47.16
15405;BME280;7801;48.124;11.590;2023-03-15T13:51:32;95402.91;;;8.07;46.61
15405;BME280;7801;48.124;11.590;2023-03-15T13:54:10;95402.34;;;8.10;46.38
15405;BME280;7801;48.124;11.590;2023-03-15T13:56:52;95410.81;;;7.63;46.35
15405;BME280;7801;48.124;11.590;2023-03-15T13:59:26;95407.97;;;7.54;46.81
15405;BME280;7801;48.124;11.590;2023-03-15T14:01:55;95410.66;;;7.44;47.34
15405;BME280;7801;48.124;11.590;2023-03-15T14:04:21;95413.06;;;7.31;46.70
15405;BME280;7801;48.124;11.590;2023-03-15T14:06:49;95416.53;;;7.26;47.05
15405;BME280;7801;48.124;11.590;2023-03-15T14:09:26;95410.41;;;7.41;47.35
15405;BME280;7801;48.124;11.590;2023-03-15T14:12:00;95408.81;;;7.45;46.97
15405;BME280;7801;48.124;11.590;2023-03-15T14:14:27;95407.97;;;7.54;46.85
15405;BME280;7801;48.124;11.590;2023-03-15T14:16:55;95417.72;;;7.54;47.93
15405;BME280;7801;48.124;11.590;2023-03-15T14:19:29;95417.97;;;7.57;46.32
15405;BME280;7801;48.124;11.590;2023-03-15T14:22:13;95417.72;;;7.54;47.47
15405;BME280;7801;48.124;11.590;2023-03-15T14:24:43;95417.47;;;7.50;46.65
15405;BME280;7801;48.124;11.590;2023-03-15T14:29:53;95414.78;;;7.61;47.93
15405;BME280;7801;48.124;11.590;2023-03-15T14:32:32;95421.75;;;7.41;47.99
15405;BME280;7801;48.124;11.590;2023-03-15T14:35:00;95424.38;;;7.41;47.45
15405;BME280;7801;48.124;11.590;2023-03-15T14:37:29;95424.41;;;7.31;49.16
15405;BME280;7801;48.124;11.590;2023-03-15T14:42:43;95428.16;;;7.20;49.73